Time;durP1;ratioP1;P1;durP2;ratioP2;P2;SDS_P1;SDS_P2;PMS_P1;PMS_P2;Temp;Humidity;BMP_temperature;BMP_pressure;BME280_temperature;BME280_humidity;BME280_pressure;Samples;Min_cycle;Max_cycle;Signal;HPM_P1;HPM_P2
2021/10/05 00:00:31;;;;;;;;;;;16.40;99.90;;;;;;5078143;28;883;-49
2021/10/05 00:02:58;;;;;;;;;;;16.30;99.90;;;;;;5078751;28;807;-48
2021/10/05 00:05:23;;;;;;;;;;;16.30;99.90;;;;;;5078369;28;757;-45
2021/10/05 00:07:50;;;;;;;;;;;16.30;99.90;;;;;;5078554;28;772;-45
2021/10/05 00:10:16;;;;;;;;;;;16.30;99.90;;;;;;5077593;28;1980;-45
2021/10/05 00:12:42;;;;;;;;;;;16.30;99.90;;;;;;5069126;28;816;-45
2021/10/05 00:15:08;;;;;;;;;;;16.30;99.90;;;;;;5059080;28;904;-46
2021/10/05 00:17:33;;;;;;;;;;;16.30;99.90;;;;;;5072606;28;749;-45
2021/10/05 00:19:59;;;;;;;;;;;16.30;99.90;;;;;;5077959;28;919;-45
2021/10/05 00:22:25;;;;;;;;;;;16.30;99.90;;;;;;5078112;28;826;-45
2021/10/05 00:24:51;;;;;;;;;;;16.20;99.90;;;;;;5080538;28;817;-48
2021/10/05 00:27:16;;;;;;;;;;;16.30;99.90;;;;;;5077679;28;1499;-46
2021/10/05 00:29:42;;;;;;;;;;;16.20;99.90;;;;;;5076536;28;1902;-48
2021/10/05 00:32:08;;;;;;;;;;;16.20;99.90;;;;;;5064040;28;856;-50
2021/10/05 00:34:33;;;;;;;;;;;16.20;99.90;;;;;;5058501;28;1610;-48
2021/10/05 00:36:59;;;;;;;;;;;16.20;99.90;;;;;;5058354;28;835;-48
2021/10/05 00:39:25;;;;;;;;;;;16.20;99.90;;;;;;5058708;28;820;-45
2021/10/05 00:41:51;;;;;;;;;;;16.20;99.90;;;;;;5058797;28;869;-45
2021/10/05 00:44:27;;;;;;;;;;;16.20;99.90;;;;;;5058524;28;824;-45
2021/10/05 00:46:52;;;;;;;;;;;16.20;99.90;;;;;;5067317;28;828;-45
2021/10/05 00:49:17;;;;;;;;;;;16.20;99.90;;;;;;5077427;28;887;-45
2021/10/05 00:51:43;;;;;;;;;;;16.10;99.90;;;;;;5077493;28;1894;-45
2021/10/05 00:54:09;;;;;;;;;;;16.20;99.90;;;;;;5077308;28;879;-45
2021/10/05 00:56:34;;;;;;;;;;;16.10;99.90;;;;;;5077271;28;1078;-45
2021/10/05 00:59:00;;;;;;;;;;;16.10;99.90;;;;;;5077378;28;805;-45
2021/10/05 01:01:25;;;;;;;;;;;16.10;99.90;;;;;;5077443;28;919;-45
2021/10/05 01:03:50;;;;;;;;;;;16.10;99.90;;;;;;5077208;28;937;-45
2021/10/05 01:06:16;;;;;;;;;;;16.10;99.90;;;;;;5059626;28;1318;-45
2021/10/05 01:08:42;;;;;;;;;;;16.10;99.90;;;;;;5077424;28;817;-45
2021/10/05 01:11:07;;;;;;;;;;;16.10;99.90;;;;;;5076745;28;1971;-45
2021/10/05 01:13:33;;;;;;;;;;;16.10;99.90;;;;;;5077045;28;777;-45
2021/10/05 01:15:58;;;;;;;;;;;16.10;99.90;;;;;;5077239;28;712;-45
2021/10/05 01:18:24;;;;;;;;;;;16.10;99.90;;;;;;5076007;28;1202;-46
2021/10/05 01:20:56;;;;;;;;;;;16.10;99.90;;;;;;5062539;28;1410;-46
2021/10/05 01:23:22;;;;;;;;;;;16.10;99.90;;;;;;5057049;28;849;-45
2021/10/05 01:25:48;;;;;;;;;;;16.00;99.90;;;;;;5057642;28;801;-46
2021/10/05 01:28:16;;;;;;;;;;;16.00;99.90;;;;;;5075968;28;800;-47
2021/10/05 01:30:41;;;;;;;;;;;16.00;99.90;;;;;;5076742;28;1903;-45
2021/10/05 01:33:07;;;;;;;;;;;16.00;99.90;;;;;;5076933;28;1079;-46
2021/10/05 01:35:32;;;;;;;;;;;16.00;99.90;;;;;;5076805;28;818;-46
2021/10/05 01:37:58;;;;;;;;;;;16.00;99.90;;;;;;5077048;28;963;-45
2021/10/05 01:40:24;;;;;;;;;;;16.00;99.90;;;;;;5076561;28;836;-45
2021/10/05 01:42:49;;;;;;;;;;;16.00;99.90;;;;;;5061544;28;1334;-45
2021/10/05 01:45:15;;;;;;;;;;;16.00;99.90;;;;;;5057291;28;891;-48
2021/10/05 01:47:42;;;;;;;;;;;16.00;99.90;;;;;;5072169;28;726;-50
2021/10/05 01:50:08;;;;;;;;;;;15.90;99.90;;;;;;5076155;28;1899;-46
2021/10/05 01:52:33;;;;;;;;;;;16.00;99.90;;;;;;5076352;28;788;-45
2021/10/05 01:54:59;;;;;;;;;;;15.90;99.90;;;;;;5076290;28;722;-45
2021/10/05 01:57:24;;;;;;;;;;;15.90;99.90;;;;;;5076381;28;825;-45
2021/10/05 01:59:50;;;;;;;;;;;15.90;99.90;;;;;;5076416;28;788;-45
2021/10/05 02:02:16;;;;;;;;;;;15.90;99.90;;;;;;5076216;28;796;-45
2021/10/05 02:04:44;;;;;;;;;;;15.90;99.90;;;;;;5076237;28;772;-45
2021/10/05 02:07:11;;;;;;;;;;;15.90;99.90;;;;;;5076074;28;792;-45
2021/10/05 02:09:37;;;;;;;;;;;15.90;99.90;;;;;;5075158;28;1187;-45
2021/10/05 02:12:03;;;;;;;;;;;15.90;99.90;;;;;;5076120;28;778;-45
2021/10/05 02:14:29;;;;;;;;;;;15.90;99.90;;;;;;5075877;28;813;-45
2021/10/05 02:16:54;;;;;;;;;;;15.90;99.90;;;;;;5076046;28;847;-45
2021/10/05 02:19:20;;;;;;;;;;;15.90;99.90;;;;;;5075269;28;872;-45
2021/10/05 02:21:46;;;;;;;;;;;15.80;99.90;;;;;;5075685;28;792;-45
2021/10/05 02:26:47;;;;;;;;;;;15.80;99.90;;;;;;5075849;28;632;-45
2021/10/05 02:29:12;;;;;;;;;;;15.80;99.90;;;;;;5075628;28;1629;-46
2021/10/05 02:31:38;;;;;;;;;;;15.80;99.90;;;;;;5075787;28;1961;-45
2021/10/05 02:34:03;;;;;;;;;;;15.80;99.90;;;;;;5075573;28;741;-45
2021/10/05 02:36:29;;;;;;;;;;;15.80;99.90;;;;;;5075594;28;1085;-45
2021/10/05 02:38:55;;;;;;;;;;;15.80;99.90;;;;;;5075797;28;845;-46
2021/10/05 02:41:20;;;;;;;;;;;15.80;99.90;;;;;;5075640;28;767;-45
2021/10/05 02:43:46;;;;;;;;;;;15.80;99.90;;;;;;5075693;28;816;-45
2021/10/05 02:46:11;;;;;;;;;;;15.80;99.90;;;;;;5075570;28;828;-45
2021/10/05 02:48:37;;;;;;;;;;;15.70;99.90;;;;;;5075739;28;844;-45
2021/10/05 02:51:02;;;;;;;;;;;15.70;99.90;;;;;;5075110;28;1961;-45
2021/10/05 02:53:28;;;;;;;;;;;15.70;99.90;;;;;;5075625;28;892;-46
2021/10/05 02:55:54;;;;;;;;;;;15.70;99.90;;;;;;5075318;28;837;-46
2021/10/05 02:58:20;;;;;;;;;;;15.70;99.90;;;;;;5074997;28;825;-45
2021/10/05 03:00:45;;;;;;;;;;;15.70;99.90;;;;;;5075297;28;832;-45
2021/10/05 03:03:11;;;;;;;;;;;15.70;99.90;;;;;;5075245;28;844;-45
2021/10/05 03:05:36;;;;;;;;;;;15.70;99.90;;;;;;5075137;28;844;-45
2021/10/05 03:08:05;;;;;;;;;;;15.70;99.90;;;;;;5075338;28;841;-45
2021/10/05 03:10:31;;;;;;;;;;;15.70;99.90;;;;;;5074895;28;1898;-45
2021/10/05 03:12:57;;;;;;;;;;;15.70;99.90;;;;;;5075064;28;785;-45
2021/10/05 03:15:22;;;;;;;;;;;15.70;99.90;;;;;;5075087;28;963;-45
2021/10/05 03:17:48;;;;;;;;;;;15.70;99.90;;;;;;5075254;28;769;-45
2021/10/05 03:20:13;;;;;;;;;;;15.70;99.90;;;;;;5066507;28;1286;-45
2021/10/05 03:22:39;;;;;;;;;;;15.70;99.90;;;;;;5056119;28;787;-45
2021/10/05 03:25:05;;;;;;;;;;;15.70;99.90;;;;;;5055841;28;824;-45
2021/10/05 03:27:31;;;;;;;;;;;15.70;99.90;;;;;;5055872;28;888;-45
2021/10/05 03:29:57;;;;;;;;;;;15.70;99.90;;;;;;5056012;28;1902;-45
2021/10/05 03:32:23;;;;;;;;;;;15.70;99.90;;;;;;5057371;28;864;-45
2021/10/05 03:34:48;;;;;;;;;;;15.70;99.90;;;;;;5042087;28;797;-45
2021/10/05 03:37:14;;;;;;;;;;;15.70;99.90;;;;;;5059750;28;1082;-45
2021/10/05 03:39:39;;;;;;;;;;;15.60;99.90;;;;;;5059686;28;774;-45
2021/10/05 03:42:05;;;;;;;;;;;15.70;99.90;;;;;;5059698;28;773;-45
2021/10/05 03:44:30;;;;;;;;;;;15.60;99.90;;;;;;5059884;28;810;-45
2021/10/05 03:46:56;;;;;;;;;;;15.70;99.90;;;;;;5071855;28;1101;-45
2021/10/05 03:49:21;;;;;;;;;;;15.60;99.90;;;;;;5067416;28;1047;-45
2021/10/05 03:51:47;;;;;;;;;;;15.60;99.90;;;;;;5074165;28;1891;-49
2021/10/05 03:54:13;;;;;;;;;;;15.60;99.90;;;;;;5074853;28;1309;-49
2021/10/05 03:56:39;;;;;;;;;;;15.60;99.90;;;;;;5070823;28;1369;-48
2021/10/05 03:59:04;;;;;;;;;;;15.60;99.90;;;;;;5074135;28;1375;-48
2021/10/05 04:01:30;;;;;;;;;;;15.60;99.90;;;;;;5069379;28;1383;-48
2021/10/05 04:03:56;;;;;;;;;;;15.60;99.90;;;;;;5064899;28;1293;-48
2021/10/05 04:06:22;;;;;;;;;;;15.60;99.90;;;;;;5058624;28;753;-49
2021/10/05 04:08:48;;;;;;;;;;;15.60;99.90;;;;;;5058718;28;861;-48
2021/10/05 04:11:13;;;;;;;;;;;15.60;99.90;;;;;;5058834;28;1906;-48
2021/10/05 04:13:40;;;;;;;;;;;15.60;99.90;;;;;;5059058;28;844;-49
2021/10/05 04:16:05;;;;;;;;;;;15.60;99.90;;;;;;5061291;28;925;-48
2021/10/05 04:18:31;;;;;;;;;;;15.60;99.90;;;;;;5078445;28;827;-48
2021/10/05 04:20:56;;;;;;;;;;;15.60;99.90;;;;;;5077676;28;1602;-48
2021/10/05 04:23:22;;;;;;;;;;;15.60;99.90;;;;;;5078212;28;745;-49
2021/10/05 04:25:47;;;;;;;;;;;15.60;99.90;;;;;;5078152;28;856;-48
2021/10/05 04:28:13;;;;;;;;;;;15.60;99.90;;;;;;5077719;28;810;-48
2021/10/05 04:30:38;;;;;;;;;;;15.60;99.90;;;;;;5077901;28;1965;-49
2021/10/05 04:33:04;;;;;;;;;;;15.60;99.90;;;;;;5078135;28;829;-49
2021/10/05 04:35:29;;;;;;;;;;;15.60;99.90;;;;;;5077658;28;741;-48
2021/10/05 04:37:55;;;;;;;;;;;15.60;99.90;;;;;;5060254;28;693;-48
2021/10/05 04:40:20;;;;;;;;;;;15.60;99.90;;;;;;5077857;28;819;-48
2021/10/05 04:42:46;;;;;;;;;;;15.50;99.90;;;;;;5077344;28;764;-49
2021/10/05 04:45:11;;;;;;;;;;;15.50;99.90;;;;;;5077520;28;761;-45
2021/10/05 04:47:37;;;;;;;;;;;15.50;99.90;;;;;;5077867;28;816;-45
2021/10/05 04:50:03;;;;;;;;;;;15.60;99.90;;;;;;5074192;28;1906;-45
2021/10/05 04:52:29;;;;;;;;;;;15.50;99.90;;;;;;5071361;28;1338;-49
2021/10/05 04:54:54;;;;;;;;;;;15.50;99.90;;;;;;5066629;28;1208;-49
2021/10/05 04:57:20;;;;;;;;;;;15.50;99.90;;;;;;5058363;28;825;-49
2021/10/05 04:59:46;;;;;;;;;;;15.50;99.90;;;;;;5058291;28;813;-45
2021/10/05 05:02:12;;;;;;;;;;;15.50;99.90;;;;;;5058564;28;773;-45
2021/10/05 05:04:37;;;;;;;;;;;15.50;99.90;;;;;;5057922;28;913;-45
2021/10/05 05:07:03;;;;;;;;;;;15.50;99.90;;;;;;5058330;28;940;-49
2021/10/05 05:09:29;;;;;;;;;;;15.50;99.90;;;;;;5058191;28;788;-48
2021/10/05 05:11:54;;;;;;;;;;;15.50;99.90;;;;;;5057844;28;1923;-49
2021/10/05 05:14:22;;;;;;;;;;;15.50;99.90;;;;;;5058119;28;802;-48
2021/10/05 05:16:48;;;;;;;;;;;15.40;99.90;;;;;;5061957;28;1229;-45
2021/10/05 05:19:14;;;;;;;;;;;15.40;99.90;;;;;;5058035;28;804;-45
2021/10/05 05:21:40;;;;;;;;;;;15.40;99.90;;;;;;5056617;28;847;-45
2021/10/05 05:24:05;;;;;;;;;;;15.40;99.90;;;;;;5057042;28;790;-48
2021/10/05 05:26:31;;;;;;;;;;;15.40;99.90;;;;;;5057195;28;789;-45
2021/10/05 05:28:57;;;;;;;;;;;15.40;99.90;;;;;;5057968;28;889;-45
2021/10/05 05:31:23;;;;;;;;;;;15.40;99.90;;;;;;5057650;28;1961;-45
2021/10/05 05:33:48;;;;;;;;;;;15.40;99.90;;;;;;5057511;28;829;-49
2021/10/05 05:36:13;;;;;;;;;;;15.40;99.90;;;;;;5057419;28;741;-45
2021/10/05 05:38:39;;;;;;;;;;;15.40;99.90;;;;;;5039867;28;738;-49
2021/10/05 05:41:05;;;;;;;;;;;15.40;99.90;;;;;;5057550;28;1063;-48
2021/10/05 05:43:30;;;;;;;;;;;15.40;99.90;;;;;;5057576;28;910;-45
2021/10/05 05:45:56;;;;;;;;;;;15.40;99.90;;;;;;5058582;28;861;-48
2021/10/05 05:48:21;;;;;;;;;;;15.40;99.90;;;;;;5056542;28;1456;-45
2021/10/05 05:50:47;;;;;;;;;;;15.40;99.90;;;;;;5057390;28;1961;-45
2021/10/05 05:53:12;;;;;;;;;;;15.30;99.90;;;;;;5057611;28;820;-45
2021/10/05 05:55:38;;;;;;;;;;;15.30;99.90;;;;;;5055948;28;765;-48
2021/10/05 05:58:11;;;;;;;;;;;15.30;99.90;;;;;;5057500;28;809;-48
2021/10/05 06:00:36;;;;;;;;;;;15.30;99.90;;;;;;5057112;28;772;-49
2021/10/05 06:03:02;;;;;;;;;;;15.30;99.90;;;;;;5057096;28;849;-45
2021/10/05 06:05:28;;;;;;;;;;;15.30;99.90;;;;;;5071129;28;980;-48
2021/10/05 06:07:53;;;;;;;;;;;15.30;99.90;;;;;;5076354;28;852;-50
2021/10/05 06:10:19;;;;;;;;;;;15.30;99.90;;;;;;5075786;28;1910;-48
2021/10/05 06:12:44;;;;;;;;;;;15.30;99.90;;;;;;5058732;28;1422;-48
2021/10/05 06:15:11;;;;;;;;;;;15.30;99.90;;;;;;5073093;28;1386;-48
2021/10/05 06:17:39;;;;;;;;;;;15.30;99.90;;;;;;5054386;28;765;-49
2021/10/05 06:20:08;;;;;;;;;;;15.30;99.90;;;;;;5076052;28;844;-48
2021/10/05 06:22:34;;;;;;;;;;;15.30;99.90;;;;;;5075927;28;1008;-48
2021/10/05 06:25:00;;;;;;;;;;;15.30;99.90;;;;;;5075723;28;824;-45
2021/10/05 06:27:25;;;;;;;;;;;15.30;99.90;;;;;;5075843;28;832;-45
2021/10/05 06:29:51;;;;;;;;;;;15.30;99.90;;;;;;5075718;28;1910;-45
2021/10/05 06:32:16;;;;;;;;;;;15.30;99.90;;;;;;5063847;28;988;-45
2021/10/05 06:34:42;;;;;;;;;;;15.30;99.90;;;;;;5056101;28;833;-45
2021/10/05 06:37:07;;;;;;;;;;;15.30;99.90;;;;;;5068052;28;1035;-47
2021/10/05 06:39:33;;;;;;;;;;;15.30;99.90;;;;;;5056905;28;1064;-45
2021/10/05 06:41:58;;;;;;;;;;;15.30;99.90;;;;;;5062037;28;996;-45
2021/10/05 06:44:25;;;;;;;;;;;15.30;99.90;;;;;;5069318;28;1367;-48
2021/10/05 06:46:51;;;;;;;;;;;15.40;99.90;;;;;;5066398;28;1274;-48
2021/10/05 06:49:16;;;;;;;;;;;15.30;99.90;;;;;;5071491;28;1239;-48
2021/10/05 06:51:42;;;;;;;;;;;15.30;99.90;;;;;;5071793;28;1967;-46
2021/10/05 06:54:07;;;;;;;;;;;15.40;99.90;;;;;;5048809;28;1290;-50
2021/10/05 06:56:33;;;;;;;;;;;15.40;99.90;;;;;;5065974;28;1235;-47
2021/10/05 06:58:59;;;;;;;;;;;15.40;99.90;;;;;;5059666;28;1313;-47
2021/10/05 07:01:26;;;;;;;;;;;15.40;99.90;;;;;;5063043;28;1009;-47
2021/10/05 07:03:58;;;;;;;;;;;15.50;99.90;;;;;;5060415;28;1203;-46
2021/10/05 07:06:24;;;;;;;;;;;15.60;99.90;;;;;;5043868;28;1644;-50
2021/10/05 07:08:50;;;;;;;;;;;15.70;99.90;;;;;;5056350;28;891;-49
2021/10/05 07:11:15;;;;;;;;;;;15.90;99.90;;;;;;5055614;28;1973;-51
2021/10/05 07:13:41;;;;;;;;;;;16.00;99.90;;;;;;5064190;28;1108;-47
2021/10/05 07:16:06;;;;;;;;;;;16.20;99.90;;;;;;5048462;28;1188;-47
2021/10/05 07:18:33;;;;;;;;;;;16.30;99.90;;;;;;5074103;28;1822;-47
2021/10/05 07:21:02;;;;;;;;;;;16.40;99.90;;;;;;5073966;28;1250;-46
2021/10/05 07:23:28;;;;;;;;;;;16.40;99.90;;;;;;5062953;28;1223;-47
2021/10/05 07:25:54;;;;;;;;;;;16.40;99.90;;;;;;5055580;28;824;-46
2021/10/05 07:28:20;;;;;;;;;;;16.60;99.90;;;;;;5059369;28;1164;-44
2021/10/05 07:30:46;;;;;;;;;;;16.80;99.90;;;;;;5055919;28;1961;-51
2021/10/05 07:33:11;;;;;;;;;;;16.90;99.90;;;;;;5055700;28;931;-51
2021/10/05 07:35:37;;;;;;;;;;;16.90;99.90;;;;;;5061473;28;1000;-51
2021/10/05 07:38:03;;;;;;;;;;;17.00;99.90;;;;;;5056973;28;1528;-51
2021/10/05 07:40:29;;;;;;;;;;;17.00;99.90;;;;;;5055099;28;884;-47
2021/10/05 07:42:55;;;;;;;;;;;17.00;99.90;;;;;;5055594;28;829;-47
2021/10/05 07:45:22;;;;;;;;;;;17.00;99.90;;;;;;5055711;28;766;-51
2021/10/05 07:47:47;;;;;;;;;;;17.00;99.90;;;;;;5071059;28;769;-46
2021/10/05 07:50:13;;;;;;;;;;;17.00;99.90;;;;;;5074760;28;1906;-46
2021/10/05 07:52:38;;;;;;;;;;;17.10;99.90;;;;;;5077698;28;1008;-52
2021/10/05 07:55:05;;;;;;;;;;;17.10;99.90;;;;;;5059963;28;1595;-50
2021/10/05 07:57:30;;;;;;;;;;;17.30;99.90;;;;;;5044308;28;1207;-51
2021/10/05 07:59:56;;;;;;;;;;;17.30;99.90;;;;;;5057244;28;1323;-51
2021/10/05 08:02:22;;;;;;;;;;;17.30;99.90;;;;;;5067003;28;1230;-48
2021/10/05 08:04:47;;;;;;;;;;;17.40;99.90;;;;;;5055354;28;981;-56
2021/10/05 08:07:14;;;;;;;;;;;17.40;99.90;;;;;;5055419;28;1059;-50
2021/10/05 08:09:40;;;;;;;;;;;17.50;99.90;;;;;;5069587;28;789;-44
2021/10/05 08:12:05;;;;;;;;;;;17.60;99.90;;;;;;5074583;28;1917;-44
2021/10/05 08:14:31;;;;;;;;;;;17.60;99.90;;;;;;5074505;28;968;-51
2021/10/05 08:16:56;;;;;;;;;;;17.70;99.90;;;;;;5074861;28;774;-51
2021/10/05 08:19:23;;;;;;;;;;;17.70;99.90;;;;;;5078042;28;840;-50
2021/10/05 08:21:48;;;;;;;;;;;17.70;99.90;;;;;;5058626;28;828;-51
2021/10/05 08:24:14;;;;;;;;;;;17.80;99.90;;;;;;5058884;28;802;-51
2021/10/05 08:26:39;;;;;;;;;;;17.90;99.90;;;;;;5063745;28;1017;-51
2021/10/05 08:29:05;;;;;;;;;;;17.90;99.90;;;;;;5064380;28;1382;-46
2021/10/05 08:31:30;;;;;;;;;;;18.00;99.90;;;;;;5058355;28;1967;-46
2021/10/05 08:33:56;;;;;;;;;;;18.00;99.90;;;;;;5068178;28;987;-46
2021/10/05 08:36:22;;;;;;;;;;;18.00;99.90;;;;;;5077756;28;737;-46
2021/10/05 08:38:47;;;;;;;;;;;18.00;99.90;;;;;;5074452;28;983;-46
2021/10/05 08:41:13;;;;;;;;;;;17.90;99.90;;;;;;5067650;28;1431;-46
2021/10/05 08:43:41;;;;;;;;;;;17.90;99.90;;;;;;5069541;28;1158;-46
2021/10/05 08:46:07;;;;;;;;;;;17.90;99.90;;;;;;5069836;28;1217;-44
2021/10/05 08:48:34;;;;;;;;;;;17.90;99.90;;;;;;5066304;28;1356;-46
2021/10/05 08:51:00;;;;;;;;;;;17.90;99.90;;;;;;5066173;28;1898;-46
2021/10/05 08:53:27;;;;;;;;;;;17.90;99.90;;;;;;5072459;28;1380;-46
2021/10/05 08:55:53;;;;;;;;;;;17.90;99.90;;;;;;5065877;28;1364;-46
2021/10/05 08:58:18;;;;;;;;;;;17.90;99.90;;;;;;5066778;28;1376;-46
2021/10/05 09:00:44;;;;;;;;;;;17.90;99.90;;;;;;5067573;28;1301;-44
2021/10/05 09:03:09;;;;;;;;;;;17.90;99.90;;;;;;5067690;28;1273;-45
2021/10/05 09:05:38;;;;;;;;;;;17.90;99.90;;;;;;5066857;28;1533;-44
2021/10/05 09:08:04;;;;;;;;;;;17.90;99.90;;;;;;5066088;28;1272;-45
2021/10/05 09:10:33;;;;;;;;;;;17.90;99.90;;;;;;5066102;28;1902;-45
2021/10/05 09:12:59;;;;;;;;;;;17.90;99.90;;;;;;5067325;28;1313;-44
2021/10/05 09:15:24;;;;;;;;;;;17.90;99.90;;;;;;5067262;28;1400;-44
2021/10/05 09:17:57;;;;;;;;;;;17.80;99.90;;;;;;5067949;28;1332;-44
2021/10/05 09:20:27;;;;;;;;;;;17.80;99.90;;;;;;5062879;28;1293;-45
2021/10/05 09:22:56;;;;;;;;;;;17.80;99.90;;;;;;5070150;28;1012;-45
2021/10/05 09:25:26;;;;;;;;;;;17.90;99.90;;;;;;5059555;28;1235;-45
2021/10/05 09:27:52;;;;;;;;;;;17.90;99.90;;;;;;5069328;28;1191;-46
2021/10/05 09:30:17;;;;;;;;;;;17.90;99.90;;;;;;5057518;28;1906;-46
2021/10/05 09:32:55;;;;;;;;;;;17.90;99.90;;;;;;5057735;28;883;-45
2021/10/05 09:35:21;;;;;;;;;;;17.90;99.90;;;;;;5057788;28;836;-45
2021/10/05 09:37:46;;;;;;;;;;;17.90;99.90;;;;;;5057454;28;843;-45
2021/10/05 09:40:13;;;;;;;;;;;17.90;99.90;;;;;;5066947;28;1155;-45
2021/10/05 09:42:40;;;;;;;;;;;17.90;99.90;;;;;;5067318;28;1316;-45
2021/10/05 09:45:07;;;;;;;;;;;18.00;99.90;;;;;;5066384;28;1304;-45
2021/10/05 09:47:36;;;;;;;;;;;18.00;99.90;;;;;;5066112;28;1368;-45
2021/10/05 09:50:24;;;;;;;;;;;18.00;99.90;;;;;;5065734;28;1953;-45
2021/10/05 09:52:54;;;;;;;;;;;18.10;99.90;;;;;;5065301;28;1356;-45
2021/10/05 09:55:24;;;;;;;;;;;18.20;99.90;;;;;;5064508;28;1103;-46
2021/10/05 09:57:50;;;;;;;;;;;18.20;99.90;;;;;;5066474;28;1281;-45
2021/10/05 10:00:16;;;;;;;;;;;18.20;99.90;;;;;;5067518;28;1352;-45
2021/10/05 10:02:42;;;;;;;;;;;18.20;99.90;;;;;;5076094;28;804;-46
2021/10/05 10:05:09;;;;;;;;;;;18.20;99.90;;;;;;5076102;28;847;-45
2021/10/05 10:07:38;;;;;;;;;;;18.20;99.90;;;;;;5063692;28;1293;-45
2021/10/05 10:10:05;;;;;;;;;;;18.20;99.90;;;;;;5060151;28;1977;-45
2021/10/05 10:12:31;;;;;;;;;;;18.20;99.90;;;;;;5056359;28;800;-45
2021/10/05 10:14:57;;;;;;;;;;;18.20;99.90;;;;;;5056491;28;872;-45
2021/10/05 10:17:23;;;;;;;;;;;18.20;99.90;;;;;;5062471;28;810;-45
2021/10/05 10:19:49;;;;;;;;;;;18.20;99.90;;;;;;5075322;28;879;-45
2021/10/05 10:22:15;;;;;;;;;;;18.20;99.90;;;;;;5069404;28;1120;-47
2021/10/05 10:24:51;;;;;;;;;;;18.20;99.90;;;;;;5068994;28;781;-45
2021/10/05 10:27:19;;;;;;;;;;;18.20;99.90;;;;;;5071122;28;1176;-45
2021/10/05 10:29:45;;;;;;;;;;;18.20;99.90;;;;;;5058428;28;790;-45
2021/10/05 10:32:17;;;;;;;;;;;18.30;99.90;;;;;;5059382;28;1902;-45
2021/10/05 10:34:44;;;;;;;;;;;18.40;99.90;;;;;;5075343;28;848;-46
2021/10/05 10:37:14;;;;;;;;;;;18.40;99.90;;;;;;5075287;28;792;-46
2021/10/05 10:39:40;;;;;;;;;;;18.40;99.90;;;;;;5069278;28;841;-46
2021/10/05 10:42:06;;;;;;;;;;;18.50;99.90;;;;;;5056731;28;1115;-47
2021/10/05 10:44:36;;;;;;;;;;;18.60;99.90;;;;;;5058050;28;1277;-47
2021/10/05 10:47:08;;;;;;;;;;;18.60;99.90;;;;;;5065972;28;808;-45
2021/10/05 10:49:34;;;;;;;;;;;18.70;99.90;;;;;;5058327;28;738;-46
2021/10/05 10:51:59;;;;;;;;;;;18.70;99.90;;;;;;5038687;28;1957;-45
2021/10/05 10:54:26;;;;;;;;;;;18.80;99.90;;;;;;5055690;28;868;-46
2021/10/05 10:57:03;;;;;;;;;;;18.80;99.90;;;;;;5055868;28;841;-46
2021/10/05 10:59:29;;;;;;;;;;;18.90;99.90;;;;;;5055912;28;849;-50
2021/10/05 11:02:00;;;;;;;;;;;19.00;99.90;;;;;;5055434;28;772;-49
2021/10/05 11:04:25;;;;;;;;;;;19.00;99.90;;;;;;5055861;28;1120;-50
2021/10/05 11:06:52;;;;;;;;;;;19.10;99.90;;;;;;5057238;28;844;-50
2021/10/05 11:09:18;;;;;;;;;;;19.20;99.90;;;;;;5061342;28;1041;-50
2021/10/05 11:11:57;;;;;;;;;;;19.30;99.90;;;;;;5054859;28;1990;-50
2021/10/05 11:14:30;;;;;;;;;;;19.40;99.90;;;;;;5069909;28;1117;-50
2021/10/05 11:17:03;;;;;;;;;;;19.40;99.90;;;;;;5064929;28;754;-50
2021/10/05 11:19:39;;;;;;;;;;;19.40;99.90;;;;;;5074963;28;816;-50
2021/10/05 11:22:09;;;;;;;;;;;19.50;99.90;;;;;;5060429;28;1231;-46
2021/10/05 11:24:43;;;;;;;;;;;19.60;99.90;;;;;;5055292;28;1267;-47
2021/10/05 11:27:19;;;;;;;;;;;19.60;99.90;;;;;;5064433;28;1175;-50
2021/10/05 11:29:45;;;;;;;;;;;19.60;99.90;;;;;;5065697;28;1396;-50
2021/10/05 11:32:13;;;;;;;;;;;19.60;99.90;;;;;;5062196;28;1906;-50
2021/10/05 11:34:40;;;;;;;;;;;19.60;99.90;;;;;;5055640;28;957;-50
2021/10/05 11:37:07;;;;;;;;;;;19.70;99.90;;;;;;5055238;28;800;-50
2021/10/05 11:39:33;;;;;;;;;;;19.70;99.90;;;;;;5059468;28;1059;-50
2021/10/05 11:42:00;;;;;;;;;;;19.70;99.90;;;;;;5059295;28;1119;-50
2021/10/05 11:44:27;;;;;;;;;;;19.70;99.90;;;;;;5059949;28;1087;-50
2021/10/05 11:47:06;;;;;;;;;;;19.70;99.90;;;;;;5058793;28;1056;-50
2021/10/05 11:49:33;;;;;;;;;;;19.80;99.90;;;;;;5054712;28;745;-51
2021/10/05 11:51:59;;;;;;;;;;;19.80;99.90;;;;;;5056164;28;1902;-52
2021/10/05 11:54:26;;;;;;;;;;;19.90;99.90;;;;;;5061632;28;1102;-49
2021/10/05 11:56:52;;;;;;;;;;;19.90;99.90;;;;;;5081456;28;788;-50
2021/10/05 11:59:28;;;;;;;;;;;19.90;99.90;;;;;;5077656;28;1322;-47
2021/10/05 12:01:58;;;;;;;;;;;20.00;99.90;;;;;;5065019;28;1181;-46
2021/10/05 12:04:27;;;;;;;;;;;19.90;99.90;;;;;;5058453;28;1016;-46
2021/10/05 12:07:00;;;;;;;;;;;20.00;99.90;;;;;;5074890;28;965;-46
2021/10/05 12:09:28;;;;;;;;;;;20.00;99.90;;;;;;5066874;28;1191;-46
2021/10/05 12:11:57;;;;;;;;;;;20.10;99.90;;;;;;5062998;28;1906;-46
2021/10/05 12:14:27;;;;;;;;;;;20.10;99.90;;;;;;5065763;28;1122;-46
2021/10/05 12:16:58;;;;;;;;;;;20.10;99.90;;;;;;5077309;28;824;-46
2021/10/05 12:19:25;;;;;;;;;;;20.10;99.90;;;;;;5059241;28;769;-46
2021/10/05 12:21:51;;;;;;;;;;;20.00;99.90;;;;;;5063644;28;834;-45
2021/10/05 12:24:17;;;;;;;;;;;20.00;99.90;;;;;;5059928;28;1356;-46
2021/10/05 12:26:49;;;;;;;;;;;20.00;99.90;;;;;;5079838;28;976;-50
2021/10/05 12:29:16;;;;;;;;;;;20.00;99.90;;;;;;5065719;28;1375;-50
2021/10/05 12:31:50;;;;;;;;;;;20.00;99.90;;;;;;5057771;28;1898;-50
2021/10/05 12:34:16;;;;;;;;;;;20.00;99.90;;;;;;5071097;28;872;-50
2021/10/05 12:36:41;;;;;;;;;;;20.00;99.90;;;;;;5077501;28;846;-46
2021/10/05 12:39:08;;;;;;;;;;;20.00;99.90;;;;;;5074378;28;1138;-47
2021/10/05 12:41:33;;;;;;;;;;;20.00;99.90;;;;;;5067003;28;1133;-50
2021/10/05 12:43:59;;;;;;;;;;;20.00;99.90;;;;;;5057807;28;746;-50
2021/10/05 12:46:24;;;;;;;;;;;19.90;99.90;;;;;;5057595;28;1270;-46
2021/10/05 12:48:57;;;;;;;;;;;19.80;99.90;;;;;;5066503;28;844;-45
2021/10/05 12:51:25;;;;;;;;;;;19.80;99.90;;;;;;5057884;28;1963;-46
2021/10/05 12:53:51;;;;;;;;;;;19.80;99.90;;;;;;5057917;28;749;-50
2021/10/05 12:56:27;;;;;;;;;;;19.70;99.90;;;;;;5057712;28;888;-50
2021/10/05 12:58:53;;;;;;;;;;;19.70;99.90;;;;;;5076754;28;1107;-50
2021/10/05 13:01:19;;;;;;;;;;;19.60;99.90;;;;;;5064084;28;1103;-50
2021/10/05 13:03:45;;;;;;;;;;;19.60;99.90;;;;;;5067090;28;1059;-50
2021/10/05 13:06:11;;;;;;;;;;;19.60;99.90;;;;;;5075375;28;865;-49
2021/10/05 13:08:37;;;;;;;;;;;19.50;99.90;;;;;;5076441;28;784;-50
2021/10/05 13:11:02;;;;;;;;;;;19.50;99.90;;;;;;5071248;28;1909;-49
2021/10/05 13:13:28;;;;;;;;;;;19.50;99.90;;;;;;5057839;28;899;-50
2021/10/05 13:15:54;;;;;;;;;;;19.40;99.90;;;;;;5062589;28;1080;-50
2021/10/05 13:18:20;;;;;;;;;;;19.40;99.90;;;;;;5067259;28;1227;-50
2021/10/05 13:20:46;;;;;;;;;;;19.30;99.90;;;;;;5066584;28;1162;-50
2021/10/05 13:23:11;;;;;;;;;;;19.30;99.90;;;;;;5056936;28;1037;-49
2021/10/05 13:25:37;;;;;;;;;;;19.20;99.90;;;;;;5057607;28;759;-56
2021/10/05 13:28:02;;;;;;;;;;;19.20;99.90;;;;;;5072151;28;1196;-46
2021/10/05 13:30:28;;;;;;;;;;;19.20;99.90;;;;;;5060946;28;1910;-46
2021/10/05 13:32:59;;;;;;;;;;;19.20;99.90;;;;;;5056158;28;910;-46
2021/10/05 13:35:26;;;;;;;;;;;19.20;99.90;;;;;;5056852;28;1213;-45
2021/10/05 13:37:51;;;;;;;;;;;19.20;99.90;;;;;;5056663;28;812;-46
2021/10/05 13:40:17;;;;;;;;;;;19.10;99.90;;;;;;5056138;28;796;-45
2021/10/05 13:42:43;;;;;;;;;;;19.10;99.90;;;;;;5057338;28;1017;-50
2021/10/05 13:45:09;;;;;;;;;;;19.10;99.90;;;;;;5062495;28;1243;-50
2021/10/05 13:47:34;;;;;;;;;;;19.00;99.90;;;;;;5062420;28;1049;-50
2021/10/05 13:50:00;;;;;;;;;;;19.00;99.90;;;;;;5057199;28;710;-46
2021/10/05 13:52:26;;;;;;;;;;;19.00;99.90;;;;;;5057073;28;1890;-50
2021/10/05 13:54:51;;;;;;;;;;;19.00;99.90;;;;;;5057048;28;1033;-50
2021/10/05 13:57:17;;;;;;;;;;;19.00;99.90;;;;;;5056898;28;726;-50
2021/10/05 13:59:43;;;;;;;;;;;19.00;99.90;;;;;;5056652;28;828;-46
2021/10/05 14:02:10;;;;;;;;;;;18.90;99.90;;;;;;5057052;28;775;-50
2021/10/05 14:04:36;;;;;;;;;;;18.90;99.90;;;;;;5057176;28;830;-50
2021/10/05 14:07:02;;;;;;;;;;;18.90;99.90;;;;;;5057055;28;849;-46
2021/10/05 14:09:27;;;;;;;;;;;18.90;99.90;;;;;;5060628;28;1065;-50
2021/10/05 14:11:53;;;;;;;;;;;18.90;99.90;;;;;;5061865;28;1973;-46
2021/10/05 14:14:19;;;;;;;;;;;18.90;99.90;;;;;;5056819;28;773;-50
2021/10/05 14:16:45;;;;;;;;;;;18.90;99.90;;;;;;5064389;28;1282;-46
2021/10/05 14:19:10;;;;;;;;;;;18.90;99.90;;;;;;5060090;28;1053;-46
2021/10/05 14:21:36;;;;;;;;;;;18.90;99.90;;;;;;5056457;28;856;-51
2021/10/05 14:24:02;;;;;;;;;;;18.90;99.90;;;;;;5062812;28;1037;-50
2021/10/05 14:26:28;;;;;;;;;;;18.80;99.90;;;;;;5057427;28;962;-50
2021/10/05 14:28:53;;;;;;;;;;;18.80;99.90;;;;;;5076202;28;1334;-50
2021/10/05 14:31:20;;;;;;;;;;;18.80;99.90;;;;;;5057109;28;1953;-46
2021/10/05 14:33:47;;;;;;;;;;;18.70;99.90;;;;;;5056452;28;796;-46